Meramec River (Missouri), Eureka (07019000)

StateMissouriLatestUnknown (2610 cfs)
RiverMeramec RiverRatingObservedEstimated
Updated2024-06-14 23:30 (45 minutes ago)Flood - The river is flooding. Obstacles can be treacherous or deadly. The river should be avoided at this stage for casual trips and definitely for the inexperienced. Trips should be attempted only with protective gear and equipment.Flood(none)(none)
Discharge2610 cfs (median: 1790 cfs)High - The river is high and potentially dangerous, especially for the young and / or inexperienced. Normal stream obstacles are sometimes difficult to navigate. Extended distances can be attempted, but canoe travel may not be advisable.High(none)(none)
Height4.6 feetGood - Conditions are ideal for a canoe or kayak. Boats typically will drag on fewer than one-quarter of riffles, if at all, and portages are unnecessary or rare. Normal float lengths can be attempted without a problem.Good(none)(none)
TrendFalling (falling over 24 hours)Low - River is low but can still be floated. Some riffles are okay but most come with significant dragging and might need a portage. Float lengths should be reduced to accommodate low flow, dragging, and portages.Low(none)(none)
USGSExternal icon USGS Site (External icon Duck Duck Go Maps)Poor - River is too low to float comfortably. Most or all riffles will drag or must be portaged and some obstacles (such as slick shelf rock) cause undue problems. Avoid the river at this stage for casual paddling trips.Poor(none)(none)

Trending Data

Plot Image

Trips for Meramec River (Missouri), Eureka (07019000)

DateStartEndDistanceConditionDischargeHeightFishingDetails

A total of 0 rows are displayed.

Condition Descriptions

Fishing Conditions

Fish Species

Notes

Classic Trip List

The classic River Trips application is still available for use. It is updated with the new system using a data retrofit. It is no longer maintained. The original River Trips application is no longer updated (as of 1 Dec 2016) but can be checked for errors or for the condition of the data before it was converted to the new system.

Gauge Data Table

ObservationHeightDischargeMaximum
Discharge
Minimum
Discharge
Mean
Discharge
P05P10P20P25P50
(Median)
P75P80P90P95
2024-06-14 23:30 4.60 2610 56200 (1957) 540 (1980) 3600 650 794 988 1090 1790 3270 3910 8590 14800
2024-06-14 23:00 4.61 2620 56200 (1957) 540 (1980) 3600 650 794 988 1090 1790 3270 3910 8590 14800
2024-06-14 22:30 4.61 2620 29100 (2003) 509 (1932) 3600 660 779 995 1080 1750 3580 4310 7630 17600
2024-06-14 22:00 4.62 2630 29100 (2003) 509 (1932) 3600 660 779 995 1080 1750 3580 4310 7630 17600
2024-06-14 21:30 4.63 2640 29100 (2003) 509 (1932) 3600 660 779 995 1080 1750 3580 4310 7630 17600
2024-06-14 21:00 4.63 2640 29100 (2003) 509 (1932) 3600 660 779 995 1080 1750 3580 4310 7630 17600
2024-06-14 20:30 4.64 2660 29100 (2003) 509 (1932) 3600 660 779 995 1080 1750 3580 4310 7630 17600
2024-06-14 20:00 4.65 2670 29100 (2003) 509 (1932) 3600 660 779 995 1080 1750 3580 4310 7630 17600
2024-06-14 19:30 4.65 2670 29100 (2003) 509 (1932) 3600 660 779 995 1080 1750 3580 4310 7630 17600
2024-06-14 19:00 4.66 2680 29100 (2003) 509 (1932) 3600 660 779 995 1080 1750 3580 4310 7630 17600
2024-06-14 18:30 4.67 2700 29100 (2003) 509 (1932) 3600 660 779 995 1080 1750 3580 4310 7630 17600
2024-06-14 18:00 4.68 2710 29100 (2003) 509 (1932) 3600 660 779 995 1080 1750 3580 4310 7630 17600
2024-06-14 17:30 4.69 2720 29100 (2003) 509 (1932) 3600 660 779 995 1080 1750 3580 4310 7630 17600
2024-06-14 17:00 4.70 2740 29100 (2003) 509 (1932) 3600 660 779 995 1080 1750 3580 4310 7630 17600
2024-06-14 16:30 4.70 2740 29100 (2003) 509 (1932) 3600 660 779 995 1080 1750 3580 4310 7630 17600
2024-06-14 16:00 4.71 2750 29100 (2003) 509 (1932) 3600 660 779 995 1080 1750 3580 4310 7630 17600
2024-06-14 15:30 4.72 2760 29100 (2003) 509 (1932) 3600 660 779 995 1080 1750 3580 4310 7630 17600
2024-06-14 15:00 4.71 2750 29100 (2003) 509 (1932) 3600 660 779 995 1080 1750 3580 4310 7630 17600
2024-06-14 14:30 4.73 2780 29100 (2003) 509 (1932) 3600 660 779 995 1080 1750 3580 4310 7630 17600
2024-06-14 14:00 4.74 2790 29100 (2003) 509 (1932) 3600 660 779 995 1080 1750 3580 4310 7630 17600
2024-06-14 13:30 4.75 2800 29100 (2003) 509 (1932) 3600 660 779 995 1080 1750 3580 4310 7630 17600
2024-06-14 13:00 4.75 2800 29100 (2003) 509 (1932) 3600 660 779 995 1080 1750 3580 4310 7630 17600
2024-06-14 12:30 4.76 2820 29100 (2003) 509 (1932) 3600 660 779 995 1080 1750 3580 4310 7630 17600
2024-06-14 12:00 4.77 2830 29100 (2003) 509 (1932) 3600 660 779 995 1080 1750 3580 4310 7630 17600
2024-06-14 11:30 4.77 2830 29100 (2003) 509 (1932) 3600 660 779 995 1080 1750 3580 4310 7630 17600
2024-06-14 11:00 4.78 2850 29100 (2003) 509 (1932) 3600 660 779 995 1080 1750 3580 4310 7630 17600
2024-06-14 10:30 4.80 2870 29100 (2003) 509 (1932) 3600 660 779 995 1080 1750 3580 4310 7630 17600
2024-06-14 10:00 4.80 2870 29100 (2003) 509 (1932) 3600 660 779 995 1080 1750 3580 4310 7630 17600
2024-06-14 09:30 4.79 2860 29100 (2003) 509 (1932) 3600 660 779 995 1080 1750 3580 4310 7630 17600
2024-06-14 09:00 4.82 2900 29100 (2003) 509 (1932) 3600 660 779 995 1080 1750 3580 4310 7630 17600
2024-06-14 08:30 4.82 2900 29100 (2003) 509 (1932) 3600 660 779 995 1080 1750 3580 4310 7630 17600
2024-06-14 08:00 4.84 2930 29100 (2003) 509 (1932) 3600 660 779 995 1080 1750 3580 4310 7630 17600
2024-06-14 07:30 4.84 2930 29100 (2003) 509 (1932) 3600 660 779 995 1080 1750 3580 4310 7630 17600
2024-06-14 07:00 4.85 2940 29100 (2003) 509 (1932) 3600 660 779 995 1080 1750 3580 4310 7630 17600
2024-06-14 06:30 4.86 2950 29100 (2003) 509 (1932) 3600 660 779 995 1080 1750 3580 4310 7630 17600
2024-06-14 06:00 4.87 2970 29100 (2003) 509 (1932) 3600 660 779 995 1080 1750 3580 4310 7630 17600
2024-06-14 05:30 4.87 2970 29100 (2003) 509 (1932) 3600 660 779 995 1080 1750 3580 4310 7630 17600
2024-06-14 05:00 4.89 2990 29100 (2003) 509 (1932) 3600 660 779 995 1080 1750 3580 4310 7630 17600
2024-06-14 04:30 4.90 3010 29100 (2003) 509 (1932) 3600 660 779 995 1080 1750 3580 4310 7630 17600
2024-06-14 04:00 4.91 3020 29100 (2003) 509 (1932) 3600 660 779 995 1080 1750 3580 4310 7630 17600
2024-06-14 03:30 4.91 3020 29100 (2003) 509 (1932) 3600 660 779 995 1080 1750 3580 4310 7630 17600
2024-06-14 03:00 4.92 3040 29100 (2003) 509 (1932) 3600 660 779 995 1080 1750 3580 4310 7630 17600
2024-06-14 02:30 4.93 3050 29100 (2003) 509 (1932) 3600 660 779 995 1080 1750 3580 4310 7630 17600
2024-06-14 02:00 4.95 3080 29100 (2003) 509 (1932) 3600 660 779 995 1080 1750 3580 4310 7630 17600
2024-06-14 01:30 4.94 3060 29100 (2003) 509 (1932) 3600 660 779 995 1080 1750 3580 4310 7630 17600
2024-06-14 00:30 4.97 3100 29100 (2003) 509 (1932) 3600 660 779 995 1080 1750 3580 4310 7630 17600
2024-06-14 00:00 4.99 3130 29100 (2003) 509 (1932) 3600 660 779 995 1080 1750 3580 4310 7630 17600
2024-06-13 23:30 4.99 3130 29100 (2003) 509 (1932) 3600 660 779 995 1080 1750 3580 4310 7630 17600
2024-06-13 23:00 4.99 3130 29100 (2003) 509 (1932) 3600 660 779 995 1080 1750 3580 4310 7630 17600
2024-06-13 22:30 5.01 3160 41600 (1945) 457 (1977) 4270 693 793 991 1100 1920 4140 4660 11200 20100
2024-06-13 22:00 5.03 3190 41600 (1945) 457 (1977) 4270 693 793 991 1100 1920 4140 4660 11200 20100
2024-06-13 21:30 5.03 3190 41600 (1945) 457 (1977) 4270 693 793 991 1100 1920 4140 4660 11200 20100
2024-06-13 21:00 5.05 3220 41600 (1945) 457 (1977) 4270 693 793 991 1100 1920 4140 4660 11200 20100
2024-06-13 20:30 3220 41600 (1945) 457 (1977) 4270 693 793 991 1100 1920 4140 4660 11200 20100
2024-06-13 20:00 5.06 3230 41600 (1945) 457 (1977) 4270 693 793 991 1100 1920 4140 4660 11200 20100
2024-06-13 19:30 5.07 3240 41600 (1945) 457 (1977) 4270 693 793 991 1100 1920 4140 4660 11200 20100
2024-06-13 19:00 5.09 3270 41600 (1945) 457 (1977) 4270 693 793 991 1100 1920 4140 4660 11200 20100
2024-06-13 18:30 5.09 3270 41600 (1945) 457 (1977) 4270 693 793 991 1100 1920 4140 4660 11200 20100
2024-06-13 18:00 5.12 3310 41600 (1945) 457 (1977) 4270 693 793 991 1100 1920 4140 4660 11200 20100
2024-06-13 17:30 5.13 3330 41600 (1945) 457 (1977) 4270 693 793 991 1100 1920 4140 4660 11200 20100
2024-06-13 17:00 5.13 3330 41600 (1945) 457 (1977) 4270 693 793 991 1100 1920 4140 4660 11200 20100
2024-06-13 16:30 5.15 3360 41600 (1945) 457 (1977) 4270 693 793 991 1100 1920 4140 4660 11200 20100
2024-06-13 16:00 5.16 3370 41600 (1945) 457 (1977) 4270 693 793 991 1100 1920 4140 4660 11200 20100
2024-06-13 15:30 5.18 3400 41600 (1945) 457 (1977) 4270 693 793 991 1100 1920 4140 4660 11200 20100
2024-06-13 15:00 5.17 3380 41600 (1945) 457 (1977) 4270 693 793 991 1100 1920 4140 4660 11200 20100
2024-06-13 14:30 5.20 3430 41600 (1945) 457 (1977) 4270 693 793 991 1100 1920 4140 4660 11200 20100
2024-06-13 14:00 5.21 3440 41600 (1945) 457 (1977) 4270 693 793 991 1100 1920 4140 4660 11200 20100
2024-06-13 13:30 5.21 3440 41600 (1945) 457 (1977) 4270 693 793 991 1100 1920 4140 4660 11200 20100
2024-06-13 13:00 5.24 3480 41600 (1945) 457 (1977) 4270 693 793 991 1100 1920 4140 4660 11200 20100
2024-06-13 12:30 5.25 3500 41600 (1945) 457 (1977) 4270 693 793 991 1100 1920 4140 4660 11200 20100
2024-06-13 12:00 5.26 3510 41600 (1945) 457 (1977) 4270 693 793 991 1100 1920 4140 4660 11200 20100
2024-06-13 11:30 5.27 3530 41600 (1945) 457 (1977) 4270 693 793 991 1100 1920 4140 4660 11200 20100
2024-06-13 11:00 5.29 3550 41600 (1945) 457 (1977) 4270 693 793 991 1100 1920 4140 4660 11200 20100
2024-06-13 10:30 5.31 3580 41600 (1945) 457 (1977) 4270 693 793 991 1100 1920 4140 4660 11200 20100
2024-06-13 10:00 5.31 3580 41600 (1945) 457 (1977) 4270 693 793 991 1100 1920 4140 4660 11200 20100
2024-06-13 09:30 5.34 3630 41600 (1945) 457 (1977) 4270 693 793 991 1100 1920 4140 4660 11200 20100
2024-06-13 09:00 5.34 3630 41600 (1945) 457 (1977) 4270 693 793 991 1100 1920 4140 4660 11200 20100
2024-06-13 08:30 5.35 3640 41600 (1945) 457 (1977) 4270 693 793 991 1100 1920 4140 4660 11200 20100
2024-06-13 08:00 5.36 3650 41600 (1945) 457 (1977) 4270 693 793 991 1100 1920 4140 4660 11200 20100
2024-06-13 07:30 5.40 3710 41600 (1945) 457 (1977) 4270 693 793 991 1100 1920 4140 4660 11200 20100
2024-06-13 07:00 5.41 3730 41600 (1945) 457 (1977) 4270 693 793 991 1100 1920 4140 4660 11200 20100
2024-06-13 06:30 5.42 3740 41600 (1945) 457 (1977) 4270 693 793 991 1100 1920 4140 4660 11200 20100
2024-06-13 06:00 5.45 3780 41600 (1945) 457 (1977) 4270 693 793 991 1100 1920 4140 4660 11200 20100
2024-06-13 05:30 5.45 3780 41600 (1945) 457 (1977) 4270 693 793 991 1100 1920 4140 4660 11200 20100
2024-06-13 05:00 5.47 3810 41600 (1945) 457 (1977) 4270 693 793 991 1100 1920 4140 4660 11200 20100
2024-06-13 04:30 5.49 3840 41600 (1945) 457 (1977) 4270 693 793 991 1100 1920 4140 4660 11200 20100
2024-06-13 04:00 5.50 3860 41600 (1945) 457 (1977) 4270 693 793 991 1100 1920 4140 4660 11200 20100
2024-06-13 03:30 5.53 3900 41600 (1945) 457 (1977) 4270 693 793 991 1100 1920 4140 4660 11200 20100
2024-06-13 03:00 5.54 3920 41600 (1945) 457 (1977) 4270 693 793 991 1100 1920 4140 4660 11200 20100
2024-06-13 02:30 5.56 3940 41600 (1945) 457 (1977) 4270 693 793 991 1100 1920 4140 4660 11200 20100
2024-06-13 02:00 5.57 3960 41600 (1945) 457 (1977) 4270 693 793 991 1100 1920 4140 4660 11200 20100
2024-06-13 01:30 5.60 4000 41600 (1945) 457 (1977) 4270 693 793 991 1100 1920 4140 4660 11200 20100
2024-06-13 01:00 5.62 4030 41600 (1945) 457 (1977) 4270 693 793 991 1100 1920 4140 4660 11200 20100
2024-06-13 00:30 5.62 4030 41600 (1945) 457 (1977) 4270 693 793 991 1100 1920 4140 4660 11200 20100
2024-06-13 00:00 5.65 4080 41600 (1945) 457 (1977) 4270 693 793 991 1100 1920 4140 4660 11200 20100
2024-06-12 23:30 5.68 4120 41600 (1945) 457 (1977) 4270 693 793 991 1100 1920 4140 4660 11200 20100
2024-06-12 23:00 5.71 4170 41600 (1945) 457 (1977) 4270 693 793 991 1100 1920 4140 4660 11200 20100
2024-06-12 22:30 5.72 4180 71700 (1945) 446 (1977) 5010 677 811 1030 1100 2030 3520 5670 13600 22900
2024-06-12 22:00 5.73 4200 71700 (1945) 446 (1977) 5010 677 811 1030 1100 2030 3520 5670 13600 22900
2024-06-12 21:30 5.77 4260 71700 (1945) 446 (1977) 5010 677 811 1030 1100 2030 3520 5670 13600 22900
2024-06-12 21:00 5.78 4270 71700 (1945) 446 (1977) 5010 677 811 1030 1100 2030 3520 5670 13600 22900
2024-06-12 20:30 5.80 4300 71700 (1945) 446 (1977) 5010 677 811 1030 1100 2030 3520 5670 13600 22900
2024-06-12 20:00 5.82 4330 71700 (1945) 446 (1977) 5010 677 811 1030 1100 2030 3520 5670 13600 22900
2024-06-12 19:30 5.83 4350 71700 (1945) 446 (1977) 5010 677 811 1030 1100 2030 3520 5670 13600 22900
2024-06-12 19:00 5.85 4380 71700 (1945) 446 (1977) 5010 677 811 1030 1100 2030 3520 5670 13600 22900
2024-06-12 18:30 5.86 4390 71700 (1945) 446 (1977) 5010 677 811 1030 1100 2030 3520 5670 13600 22900
2024-06-12 18:00 5.88 4420 71700 (1945) 446 (1977) 5010 677 811 1030 1100 2030 3520 5670 13600 22900
2024-06-12 17:30 5.88 4420 71700 (1945) 446 (1977) 5010 677 811 1030 1100 2030 3520 5670 13600 22900
2024-06-12 17:00 5.91 4470 71700 (1945) 446 (1977) 5010 677 811 1030 1100 2030 3520 5670 13600 22900
2024-06-12 16:30 5.92 4480 71700 (1945) 446 (1977) 5010 677 811 1030 1100 2030 3520 5670 13600 22900
2024-06-12 16:00 5.92 4480 71700 (1945) 446 (1977) 5010 677 811 1030 1100 2030 3520 5670 13600 22900
2024-06-12 15:30 5.94 4510 71700 (1945) 446 (1977) 5010 677 811 1030 1100 2030 3520 5670 13600 22900
2024-06-12 15:00 5.95 4530 71700 (1945) 446 (1977) 5010 677 811 1030 1100 2030 3520 5670 13600 22900
2024-06-12 14:30 5.95 4530 71700 (1945) 446 (1977) 5010 677 811 1030 1100 2030 3520 5670 13600 22900
2024-06-12 14:00 5.96 4540 71700 (1945) 446 (1977) 5010 677 811 1030 1100 2030 3520 5670 13600 22900
2024-06-12 13:30 5.96 4540 71700 (1945) 446 (1977) 5010 677 811 1030 1100 2030 3520 5670 13600 22900
2024-06-12 13:00 5.98 4570 71700 (1945) 446 (1977) 5010 677 811 1030 1100 2030 3520 5670 13600 22900
2024-06-12 12:30 5.98 4570 71700 (1945) 446 (1977) 5010 677 811 1030 1100 2030 3520 5670 13600 22900
2024-06-12 12:00 5.98 4570 71700 (1945) 446 (1977) 5010 677 811 1030 1100 2030 3520 5670 13600 22900
2024-06-12 11:30 6.00 4600 71700 (1945) 446 (1977) 5010 677 811 1030 1100 2030 3520 5670 13600 22900
2024-06-12 11:00 6.03 4650 71700 (1945) 446 (1977) 5010 677 811 1030 1100 2030 3520 5670 13600 22900
2024-06-12 10:30 6.03 4650 71700 (1945) 446 (1977) 5010 677 811 1030 1100 2030 3520 5670 13600 22900
2024-06-12 10:00 6.06 4700 71700 (1945) 446 (1977) 5010 677 811 1030 1100 2030 3520 5670 13600 22900
2024-06-12 09:30 6.07 4710 71700 (1945) 446 (1977) 5010 677 811 1030 1100 2030 3520 5670 13600 22900
2024-06-12 09:00 6.09 4740 71700 (1945) 446 (1977) 5010 677 811 1030 1100 2030 3520 5670 13600 22900
2024-06-12 08:30 6.11 4770 71700 (1945) 446 (1977) 5010 677 811 1030 1100 2030 3520 5670 13600 22900
2024-06-12 08:00 6.15 4830 71700 (1945) 446 (1977) 5010 677 811 1030 1100 2030 3520 5670 13600 22900
2024-06-12 07:30 6.19 4900 71700 (1945) 446 (1977) 5010 677 811 1030 1100 2030 3520 5670 13600 22900
2024-06-12 07:00 6.20 4910 71700 (1945) 446 (1977) 5010 677 811 1030 1100 2030 3520 5670 13600 22900
2024-06-12 06:30 6.23 4960 71700 (1945) 446 (1977) 5010 677 811 1030 1100 2030 3520 5670 13600 22900
2024-06-12 06:00 6.27 5020 71700 (1945) 446 (1977) 5010 677 811 1030 1100 2030 3520 5670 13600 22900
2024-06-12 05:30 6.29 5050 71700 (1945) 446 (1977) 5010 677 811 1030 1100 2030 3520 5670 13600 22900
2024-06-12 05:00 6.35 5150 71700 (1945) 446 (1977) 5010 677 811 1030 1100 2030 3520 5670 13600 22900
2024-06-12 04:30 6.38 5190 71700 (1945) 446 (1977) 5010 677 811 1030 1100 2030 3520 5670 13600 22900
2024-06-12 04:00 6.39 5210 71700 (1945) 446 (1977) 5010 677 811 1030 1100 2030 3520 5670 13600 22900
2024-06-12 03:30 6.45 5300 71700 (1945) 446 (1977) 5010 677 811 1030 1100 2030 3520 5670 13600 22900
2024-06-12 03:00 6.46 5320 71700 (1945) 446 (1977) 5010 677 811 1030 1100 2030 3520 5670 13600 22900
2024-06-12 02:30 6.50 5380 71700 (1945) 446 (1977) 5010 677 811 1030 1100 2030 3520 5670 13600 22900
2024-06-12 02:00 6.54 5450 71700 (1945) 446 (1977) 5010 677 811 1030 1100 2030 3520 5670 13600 22900
2024-06-12 01:30 6.56 5480 71700 (1945) 446 (1977) 5010 677 811 1030 1100 2030 3520 5670 13600 22900
2024-06-12 01:00 6.59 5530 71700 (1945) 446 (1977) 5010 677 811 1030 1100 2030 3520 5670 13600 22900
2024-06-12 00:30 6.63 5590 71700 (1945) 446 (1977) 5010 677 811 1030 1100 2030 3520 5670 13600 22900
2024-06-12 00:00 6.66 5640 71700 (1945) 446 (1977) 5010 677 811 1030 1100 2030 3520 5670 13600 22900
2024-06-11 23:30 6.68 5670 71700 (1945) 446 (1977) 5010 677 811 1030 1100 2030 3520 5670 13600 22900
2024-06-11 23:00 6.72 5740 71700 (1945) 446 (1977) 5010 677 811 1030 1100 2030 3520 5670 13600 22900
2024-06-11 22:30 6.75 5790 111000 (1945) 462 (1977) 5000 666 842 1010 1080 2100 3450 5800 11400 19800
2024-06-11 22:00 6.77 5820 111000 (1945) 462 (1977) 5000 666 842 1010 1080 2100 3450 5800 11400 19800
2024-06-11 21:30 6.79 5850 111000 (1945) 462 (1977) 5000 666 842 1010 1080 2100 3450 5800 11400 19800
2024-06-11 21:00 6.82 5900 111000 (1945) 462 (1977) 5000 666 842 1010 1080 2100 3450 5800 11400 19800
2024-06-11 20:30 6.85 5950 111000 (1945) 462 (1977) 5000 666 842 1010 1080 2100 3450 5800 11400 19800
2024-06-11 20:00 6.88 6000 111000 (1945) 462 (1977) 5000 666 842 1010 1080 2100 3450 5800 11400 19800
2024-06-11 19:30 6.89 6010 111000 (1945) 462 (1977) 5000 666 842 1010 1080 2100 3450 5800 11400 19800
2024-06-11 19:00 6.90 6030 111000 (1945) 462 (1977) 5000 666 842 1010 1080 2100 3450 5800 11400 19800
2024-06-11 18:30 6.93 6080 111000 (1945) 462 (1977) 5000 666 842 1010 1080 2100 3450 5800 11400 19800
2024-06-11 18:00 6.95 6110 111000 (1945) 462 (1977) 5000 666 842 1010 1080 2100 3450 5800 11400 19800
2024-06-11 17:30 6.96 6130 111000 (1945) 462 (1977) 5000 666 842 1010 1080 2100 3450 5800 11400 19800
2024-06-11 17:00 6.96 6130 111000 (1945) 462 (1977) 5000 666 842 1010 1080 2100 3450 5800 11400 19800
2024-06-11 16:30 6.98 6160 111000 (1945) 462 (1977) 5000 666 842 1010 1080 2100 3450 5800 11400 19800
2024-06-11 16:00 6.97 6140 111000 (1945) 462 (1977) 5000 666 842 1010 1080 2100 3450 5800 11400 19800
2024-06-11 15:30 6.98 6160 111000 (1945) 462 (1977) 5000 666 842 1010 1080 2100 3450 5800 11400 19800
2024-06-11 15:00 6.97 6140 111000 (1945) 462 (1977) 5000 666 842 1010 1080 2100 3450 5800 11400 19800
2024-06-11 14:30 6.96 6130 111000 (1945) 462 (1977) 5000 666 842 1010 1080 2100 3450 5800 11400 19800
2024-06-11 14:00 6.95 6110 111000 (1945) 462 (1977) 5000 666 842 1010 1080 2100 3450 5800 11400 19800
2024-06-11 13:30 6.94 6100 111000 (1945) 462 (1977) 5000 666 842 1010 1080 2100 3450 5800 11400 19800
2024-06-11 13:00 6.92 6060 111000 (1945) 462 (1977) 5000 666 842 1010 1080 2100 3450 5800 11400 19800
2024-06-11 12:30 6.90 6030 111000 (1945) 462 (1977) 5000 666 842 1010 1080 2100 3450 5800 11400 19800
2024-06-11 12:00 6.87 5980 111000 (1945) 462 (1977) 5000 666 842 1010 1080 2100 3450 5800 11400 19800
2024-06-11 11:30 6.83 5920 111000 (1945) 462 (1977) 5000 666 842 1010 1080 2100 3450 5800 11400 19800
2024-06-11 11:00 6.80 5870 111000 (1945) 462 (1977) 5000 666 842 1010 1080 2100 3450 5800 11400 19800
2024-06-11 10:30 6.73 5750 111000 (1945) 462 (1977) 5000 666 842 1010 1080 2100 3450 5800 11400 19800
2024-06-11 10:00 6.69 5690 111000 (1945) 462 (1977) 5000 666 842 1010 1080 2100 3450 5800 11400 19800
2024-06-11 09:30 6.63 5590 111000 (1945) 462 (1977) 5000 666 842 1010 1080 2100 3450 5800 11400 19800
2024-06-11 09:00 6.54 5450 111000 (1945) 462 (1977) 5000 666 842 1010 1080 2100 3450 5800 11400 19800
2024-06-11 08:30 6.49 5370 111000 (1945) 462 (1977) 5000 666 842 1010 1080 2100 3450 5800 11400 19800
2024-06-11 08:00 6.38 5190 111000 (1945) 462 (1977) 5000 666 842 1010 1080 2100 3450 5800 11400 19800
2024-06-11 07:30 6.28 5040 111000 (1945) 462 (1977) 5000 666 842 1010 1080 2100 3450 5800 11400 19800
2024-06-11 07:00 6.14 4820 111000 (1945) 462 (1977) 5000 666 842 1010 1080 2100 3450 5800 11400 19800
2024-06-11 06:30 6.02 4630 111000 (1945) 462 (1977) 5000 666 842 1010 1080 2100 3450 5800 11400 19800
2024-06-11 06:00 5.91 4470 111000 (1945) 462 (1977) 5000 666 842 1010 1080 2100 3450 5800 11400 19800
2024-06-11 05:30 5.76 4240 111000 (1945) 462 (1977) 5000 666 842 1010 1080 2100 3450 5800 11400 19800
2024-06-11 05:00 5.63 4050 111000 (1945) 462 (1977) 5000 666 842 1010 1080 2100 3450 5800 11400 19800
2024-06-11 04:30 5.51 3870 111000 (1945) 462 (1977) 5000 666 842 1010 1080 2100 3450 5800 11400 19800
2024-06-11 04:00 5.40 3710 111000 (1945) 462 (1977) 5000 666 842 1010 1080 2100 3450 5800 11400 19800
2024-06-11 03:30 5.33 3610 111000 (1945) 462 (1977) 5000 666 842 1010 1080 2100 3450 5800 11400 19800
2024-06-11 03:00 5.26 3510 111000 (1945) 462 (1977) 5000 666 842 1010 1080 2100 3450 5800 11400 19800
2024-06-11 02:30 5.20 3430 111000 (1945) 462 (1977) 5000 666 842 1010 1080 2100 3450 5800 11400 19800
2024-06-11 02:00 5.13 3330 111000 (1945) 462 (1977) 5000 666 842 1010 1080 2100 3450 5800 11400 19800
2024-06-11 01:30 5.06 3230 111000 (1945) 462 (1977) 5000 666 842 1010 1080 2100 3450 5800 11400 19800
2024-06-11 01:00 5.00 3150 111000 (1945) 462 (1977) 5000 666 842 1010 1080 2100 3450 5800 11400 19800
2024-06-11 00:30 4.95 3080 111000 (1945) 462 (1977) 5000 666 842 1010 1080 2100 3450 5800 11400 19800
2024-06-11 00:00 4.88 2980 111000 (1945) 462 (1977) 5000 666 842 1010 1080 2100 3450 5800 11400 19800
2024-06-10 23:30 4.82 2900 111000 (1945) 462 (1977) 5000 666 842 1010 1080 2100 3450 5800 11400 19800
2024-06-10 23:00 4.76 2820 111000 (1945) 462 (1977) 5000 666 842 1010 1080 2100 3450 5800 11400 19800
2024-06-10 22:30 4.70 2740 70600 (1945) 481 (1977) 4030 664 830 1030 1120 1950 3610 4310 7490 17900
2024-06-10 22:00 4.63 2640 70600 (1945) 481 (1977) 4030 664 830 1030 1120 1950 3610 4310 7490 17900
2024-06-10 21:30 4.57 2570 70600 (1945) 481 (1977) 4030 664 830 1030 1120 1950 3610 4310 7490 17900
2024-06-10 21:00 4.50 2470 70600 (1945) 481 (1977) 4030 664 830 1030 1120 1950 3610 4310 7490 17900
2024-06-10 20:30 4.44 2400 70600 (1945) 481 (1977) 4030 664 830 1030 1120 1950 3610 4310 7490 17900
2024-06-10 20:00 4.37 2310 70600 (1945) 481 (1977) 4030 664 830 1030 1120 1950 3610 4310 7490 17900
2024-06-10 19:30 4.31 2230 70600 (1945) 481 (1977) 4030 664 830 1030 1120 1950 3610 4310 7490 17900
2024-06-10 19:00 4.25 2160 70600 (1945) 481 (1977) 4030 664 830 1030 1120 1950 3610 4310 7490 17900
2024-06-10 18:30 4.20 2090 70600 (1945) 481 (1977) 4030 664 830 1030 1120 1950 3610 4310 7490 17900
2024-06-10 18:00 4.15 2030 70600 (1945) 481 (1977) 4030 664 830 1030 1120 1950 3610 4310 7490 17900
2024-06-10 17:30 4.11 1970 70600 (1945) 481 (1977) 4030 664 830 1030 1120 1950 3610 4310 7490 17900
2024-06-10 17:00 4.07 1920 70600 (1945) 481 (1977) 4030 664 830 1030 1120 1950 3610 4310 7490 17900
2024-06-10 16:30 4.04 1880 70600 (1945) 481 (1977) 4030 664 830 1030 1120 1950 3610 4310 7490 17900
2024-06-10 16:00 1860 70600 (1945) 481 (1977) 4030 664 830 1030 1120 1950 3610 4310 7490 17900
2024-06-10 15:30 4.00 1830 70600 (1945) 481 (1977) 4030 664 830 1030 1120 1950 3610 4310 7490 17900
2024-06-10 15:00 3.98 1810 70600 (1945) 481 (1977) 4030 664 830 1030 1120 1950 3610 4310 7490 17900
2024-06-10 14:30 3.97 1790 70600 (1945) 481 (1977) 4030 664 830 1030 1120 1950 3610 4310 7490 17900
2024-06-10 14:00 3.95 1770 70600 (1945) 481 (1977) 4030 664 830 1030 1120 1950 3610 4310 7490 17900
2024-06-10 13:30 3.94 1760 70600 (1945) 481 (1977) 4030 664 830 1030 1120 1950 3610 4310 7490 17900
2024-06-10 13:00 3.93 1740 70600 (1945) 481 (1977) 4030 664 830 1030 1120 1950 3610 4310 7490 17900
2024-06-10 12:30 3.93 1740 70600 (1945) 481 (1977) 4030 664 830 1030 1120 1950 3610 4310 7490 17900
2024-06-10 12:00 3.91 1720 70600 (1945) 481 (1977) 4030 664 830 1030 1120 1950 3610 4310 7490 17900
2024-06-10 11:30 3.91 1720 70600 (1945) 481 (1977) 4030 664 830 1030 1120 1950 3610 4310 7490 17900
2024-06-10 11:00 3.91 1720 70600 (1945) 481 (1977) 4030 664 830 1030 1120 1950 3610 4310 7490 17900
2024-06-10 10:30 3.90 1710 70600 (1945) 481 (1977) 4030 664 830 1030 1120 1950 3610 4310 7490 17900
2024-06-10 10:00 3.90 1710 70600 (1945) 481 (1977) 4030 664 830 1030 1120 1950 3610 4310 7490 17900
2024-06-10 09:30 3.90 1710 70600 (1945) 481 (1977) 4030 664 830 1030 1120 1950 3610 4310 7490 17900
2024-06-10 09:00 3.89 1690 70600 (1945) 481 (1977) 4030 664 830 1030 1120 1950 3610 4310 7490 17900
2024-06-10 08:30 3.89 1690 70600 (1945) 481 (1977) 4030 664 830 1030 1120 1950 3610 4310 7490 17900
2024-06-10 08:00 3.90 1710 70600 (1945) 481 (1977) 4030 664 830 1030 1120 1950 3610 4310 7490 17900
2024-06-10 07:30 3.89 1690 70600 (1945) 481 (1977) 4030 664 830 1030 1120 1950 3610 4310 7490 17900
2024-06-10 07:00 3.89 1690 70600 (1945) 481 (1977) 4030 664 830 1030 1120 1950 3610 4310 7490 17900
2024-06-10 06:30 3.89 1690 70600 (1945) 481 (1977) 4030 664 830 1030 1120 1950 3610 4310 7490 17900
2024-06-10 06:00 3.90 1710 70600 (1945) 481 (1977) 4030 664 830 1030 1120 1950 3610 4310 7490 17900
2024-06-10 05:30 3.90 1710 70600 (1945) 481 (1977) 4030 664 830 1030 1120 1950 3610 4310 7490 17900
2024-06-10 05:00 3.89 1690 70600 (1945) 481 (1977) 4030 664 830 1030 1120 1950 3610 4310 7490 17900
2024-06-10 04:30 3.89 1690 70600 (1945) 481 (1977) 4030 664 830 1030 1120 1950 3610 4310 7490 17900
2024-06-10 04:00 3.90 1710 70600 (1945) 481 (1977) 4030 664 830 1030 1120 1950 3610 4310 7490 17900
2024-06-10 03:30 3.90 1710 70600 (1945) 481 (1977) 4030 664 830 1030 1120 1950 3610 4310 7490 17900
2024-06-10 03:00 3.90 1710 70600 (1945) 481 (1977) 4030 664 830 1030 1120 1950 3610 4310 7490 17900
2024-06-10 02:30 3.90 1710 70600 (1945) 481 (1977) 4030 664 830 1030 1120 1950 3610 4310 7490 17900
2024-06-10 02:00 3.90 1710 70600 (1945) 481 (1977) 4030 664 830 1030 1120 1950 3610 4310 7490 17900
2024-06-10 01:30 3.90 1710 70600 (1945) 481 (1977) 4030 664 830 1030 1120 1950 3610 4310 7490 17900
2024-06-10 01:00 3.90 1710 70600 (1945) 481 (1977) 4030 664 830 1030 1120 1950 3610 4310 7490 17900
2024-06-10 00:30 3.90 1710 70600 (1945) 481 (1977) 4030 664 830 1030 1120 1950 3610 4310 7490 17900
2024-06-10 00:00 3.91 1720 70600 (1945) 481 (1977) 4030 664 830 1030 1120 1950 3610 4310 7490 17900
2024-06-09 23:30 3.91 1720 70600 (1945) 481 (1977) 4030 664 830 1030 1120 1950 3610 4310 7490 17900
2024-06-09 23:00 3.91 1720 70600 (1945) 481 (1977) 4030 664 830 1030 1120 1950 3610 4310 7490 17900
2024-06-09 22:30 3.91 1720 29900 (1985) 506 (1977) 3490 639 811 1040 1130 1850 3630 3960 6820 13600
2024-06-09 22:00 3.91 1720 29900 (1985) 506 (1977) 3490 639 811 1040 1130 1850 3630 3960 6820 13600
2024-06-09 21:30 3.91 1720 29900 (1985) 506 (1977) 3490 639 811 1040 1130 1850 3630 3960 6820 13600
2024-06-09 21:00 3.91 1720 29900 (1985) 506 (1977) 3490 639 811 1040 1130 1850 3630 3960 6820 13600
2024-06-09 20:30 3.91 1720 29900 (1985) 506 (1977) 3490 639 811 1040 1130 1850 3630 3960 6820 13600
2024-06-09 20:00 3.92 1730 29900 (1985) 506 (1977) 3490 639 811 1040 1130 1850 3630 3960 6820 13600
2024-06-09 19:30 3.92 1730 29900 (1985) 506 (1977) 3490 639 811 1040 1130 1850 3630 3960 6820 13600
2024-06-09 19:00 3.92 1730 29900 (1985) 506 (1977) 3490 639 811 1040 1130 1850 3630 3960 6820 13600
2024-06-09 18:30 3.92 1730 29900 (1985) 506 (1977) 3490 639 811 1040 1130 1850 3630 3960 6820 13600
2024-06-09 18:00 3.92 1730 29900 (1985) 506 (1977) 3490 639 811 1040 1130 1850 3630 3960 6820 13600
2024-06-09 17:30 3.93 1740 29900 (1985) 506 (1977) 3490 639 811 1040 1130 1850 3630 3960 6820 13600
2024-06-09 17:00 3.93 1740 29900 (1985) 506 (1977) 3490 639 811 1040 1130 1850 3630 3960 6820 13600
2024-06-09 16:30 3.93 1740 29900 (1985) 506 (1977) 3490 639 811 1040 1130 1850 3630 3960 6820 13600
2024-06-09 16:00 3.93 1740 29900 (1985) 506 (1977) 3490 639 811 1040 1130 1850 3630 3960 6820 13600
2024-06-09 15:30 3.93 1740 29900 (1985) 506 (1977) 3490 639 811 1040 1130 1850 3630 3960 6820 13600
2024-06-09 15:00 3.94 1760 29900 (1985) 506 (1977) 3490 639 811 1040 1130 1850 3630 3960 6820 13600
2024-06-09 14:30 3.94 1760 29900 (1985) 506 (1977) 3490 639 811 1040 1130 1850 3630 3960 6820 13600
2024-06-09 14:00 3.95 1770 29900 (1985) 506 (1977) 3490 639 811 1040 1130 1850 3630 3960 6820 13600
2024-06-09 13:30 3.94 1760 29900 (1985) 506 (1977) 3490 639 811 1040 1130 1850 3630 3960 6820 13600
2024-06-09 13:00 3.95 1770 29900 (1985) 506 (1977) 3490 639 811 1040 1130 1850 3630 3960 6820 13600
2024-06-09 12:30 3.95 1770 29900 (1985) 506 (1977) 3490 639 811 1040 1130 1850 3630 3960 6820 13600
2024-06-09 12:00 3.95 1770 29900 (1985) 506 (1977) 3490 639 811 1040 1130 1850 3630 3960 6820 13600
2024-06-09 11:30 3.96 1780 29900 (1985) 506 (1977) 3490 639 811 1040 1130 1850 3630 3960 6820 13600
2024-06-09 11:00 3.96 1780 29900 (1985) 506 (1977) 3490 639 811 1040 1130 1850 3630 3960 6820 13600
2024-06-09 10:30 3.96 1780 29900 (1985) 506 (1977) 3490 639 811 1040 1130 1850 3630 3960 6820 13600
2024-06-09 10:00 3.96 1780 29900 (1985) 506 (1977) 3490 639 811 1040 1130 1850 3630 3960 6820 13600
2024-06-09 09:30 3.97 1790 29900 (1985) 506 (1977) 3490 639 811 1040 1130 1850 3630 3960 6820 13600
2024-06-09 09:00 3.97 1790 29900 (1985) 506 (1977) 3490 639 811 1040 1130 1850 3630 3960 6820 13600
2024-06-09 08:30 3.98 1810 29900 (1985) 506 (1977) 3490 639 811 1040 1130 1850 3630 3960 6820 13600
2024-06-09 08:00 3.98 1810 29900 (1985) 506 (1977) 3490 639 811 1040 1130 1850 3630 3960 6820 13600
2024-06-09 07:30 3.98 1810 29900 (1985) 506 (1977) 3490 639 811 1040 1130 1850 3630 3960 6820 13600
2024-06-09 07:00 3.99 1820 29900 (1985) 506 (1977) 3490 639 811 1040 1130 1850 3630 3960 6820 13600
2024-06-09 06:30 4.00 1830 29900 (1985) 506 (1977) 3490 639 811 1040 1130 1850 3630 3960 6820 13600
2024-06-09 06:00 4.00 1830 29900 (1985) 506 (1977) 3490 639 811 1040 1130 1850 3630 3960 6820 13600
2024-06-09 05:30 4.01 1840 29900 (1985) 506 (1977) 3490 639 811 1040 1130 1850 3630 3960 6820 13600
2024-06-09 05:00 4.00 1830 29900 (1985) 506 (1977) 3490 639 811 1040 1130 1850 3630 3960 6820 13600
2024-06-09 04:30 4.00 1830 29900 (1985) 506 (1977) 3490 639 811 1040 1130 1850 3630 3960 6820 13600
2024-06-09 04:00 4.00 1830 29900 (1985) 506 (1977) 3490 639 811 1040 1130 1850 3630 3960 6820 13600
2024-06-09 03:30 4.01 1840 29900 (1985) 506 (1977) 3490 639 811 1040 1130 1850 3630 3960 6820 13600
2024-06-09 03:00 4.01 1840 29900 (1985) 506 (1977) 3490 639 811 1040 1130 1850 3630 3960 6820 13600
2024-06-09 02:30 4.00 1830 29900 (1985) 506 (1977) 3490 639 811 1040 1130 1850 3630 3960 6820 13600
2024-06-09 02:00 4.00 1830 29900 (1985) 506 (1977) 3490 639 811 1040 1130 1850 3630 3960 6820 13600
2024-06-09 01:30 4.00 1830 29900 (1985) 506 (1977) 3490 639 811 1040 1130 1850 3630 3960 6820 13600
2024-06-09 01:00 4.00 1830 29900 (1985) 506 (1977) 3490 639 811 1040 1130 1850 3630 3960 6820 13600
2024-06-09 00:30 3.99 1820 29900 (1985) 506 (1977) 3490 639 811 1040 1130 1850 3630 3960 6820 13600
2024-06-09 00:00 3.99 1820 29900 (1985) 506 (1977) 3490 639 811 1040 1130 1850 3630 3960 6820 13600
2024-06-08 23:30 3.99 1820 29900 (1985) 506 (1977) 3490 639 811 1040 1130 1850 3630 3960 6820 13600
2024-06-08 23:00 3.99 1820 29900 (1985) 506 (1977) 3490 639 811 1040 1130 1850 3630 3960 6820 13600
2024-06-08 22:30 3.99 1820 27500 (1985) 531 (1977) 3400 671 824 1060 1170 1820 3960 4250 7010 13400
2024-06-08 22:00 3.99 1820 27500 (1985) 531 (1977) 3400 671 824 1060 1170 1820 3960 4250 7010 13400
2024-06-08 21:30 3.99 1820 27500 (1985) 531 (1977) 3400 671 824 1060 1170 1820 3960 4250 7010 13400
2024-06-08 21:00 4.01 1840 27500 (1985) 531 (1977) 3400 671 824 1060 1170 1820 3960 4250 7010 13400
2024-06-08 20:30 4.00 1830 27500 (1985) 531 (1977) 3400 671 824 1060 1170 1820 3960 4250 7010 13400
2024-06-08 20:00 3.98 1810 27500 (1985) 531 (1977) 3400 671 824 1060 1170 1820 3960 4250 7010 13400
2024-06-08 19:30 3.98 1810 27500 (1985) 531 (1977) 3400 671 824 1060 1170 1820 3960 4250 7010 13400
2024-06-08 19:00 3.99 1820 27500 (1985) 531 (1977) 3400 671 824 1060 1170 1820 3960 4250 7010 13400
2024-06-08 18:30 3.99 1820 27500 (1985) 531 (1977) 3400 671 824 1060 1170 1820 3960 4250 7010 13400
2024-06-08 18:00 3.99 1820 27500 (1985) 531 (1977) 3400 671 824 1060 1170 1820 3960 4250 7010 13400
2024-06-08 17:30 3.99 1820 27500 (1985) 531 (1977) 3400 671 824 1060 1170 1820 3960 4250 7010 13400
2024-06-08 17:00 3.99 1820 27500 (1985) 531 (1977) 3400 671 824 1060 1170 1820 3960 4250 7010 13400
2024-06-08 16:30 4.00 1830 27500 (1985) 531 (1977) 3400 671 824 1060 1170 1820 3960 4250 7010 13400
2024-06-08 16:00 3.99 1820 27500 (1985) 531 (1977) 3400 671 824 1060 1170 1820 3960 4250 7010 13400
2024-06-08 15:30 3.99 1820 27500 (1985) 531 (1977) 3400 671 824 1060 1170 1820 3960 4250 7010 13400
2024-06-08 15:00 4.00 1830 27500 (1985) 531 (1977) 3400 671 824 1060 1170 1820 3960 4250 7010 13400
2024-06-08 14:30 4.00 1830 27500 (1985) 531 (1977) 3400 671 824 1060 1170 1820 3960 4250 7010 13400
2024-06-08 14:00 4.00 1830 27500 (1985) 531 (1977) 3400 671 824 1060 1170 1820 3960 4250 7010 13400
2024-06-08 13:30 4.00 1830 27500 (1985) 531 (1977) 3400 671 824 1060 1170 1820 3960 4250 7010 13400
2024-06-08 13:00 4.00 1830 27500 (1985) 531 (1977) 3400 671 824 1060 1170 1820 3960 4250 7010 13400
2024-06-08 12:30 4.00 1830 27500 (1985) 531 (1977) 3400 671 824 1060 1170 1820 3960 4250 7010 13400
2024-06-08 12:00 4.00 1830 27500 (1985) 531 (1977) 3400 671 824 1060 1170 1820 3960 4250 7010 13400
2024-06-08 11:30 4.00 1830 27500 (1985) 531 (1977) 3400 671 824 1060 1170 1820 3960 4250 7010 13400
2024-06-08 11:00 4.01 1840 27500 (1985) 531 (1977) 3400 671 824 1060 1170 1820 3960 4250 7010 13400
2024-06-08 10:30 4.00 1830 27500 (1985) 531 (1977) 3400 671 824 1060 1170 1820 3960 4250 7010 13400
2024-06-08 10:00 4.01 1840 27500 (1985) 531 (1977) 3400 671 824 1060 1170 1820 3960 4250 7010 13400
2024-06-08 09:30 4.01 1840 27500 (1985) 531 (1977) 3400 671 824 1060 1170 1820 3960 4250 7010 13400
2024-06-08 09:00 4.01 1840 27500 (1985) 531 (1977) 3400 671 824 1060 1170 1820 3960 4250 7010 13400
2024-06-08 08:30 4.01 1840 27500 (1985) 531 (1977) 3400 671 824 1060 1170 1820 3960 4250 7010 13400
2024-06-08 08:00 4.01 1840 27500 (1985) 531 (1977) 3400 671 824 1060 1170 1820 3960 4250 7010 13400
2024-06-08 07:30 4.01 1840 27500 (1985) 531 (1977) 3400 671 824 1060 1170 1820 3960 4250 7010 13400
2024-06-08 07:00 4.01 1840 27500 (1985) 531 (1977) 3400 671 824 1060 1170 1820 3960 4250 7010 13400
2024-06-08 06:30 4.00 1830 27500 (1985) 531 (1977) 3400 671 824 1060 1170 1820 3960 4250 7010 13400
2024-06-08 06:00 4.00 1830 27500 (1985) 531 (1977) 3400 671 824 1060 1170 1820 3960 4250 7010 13400
2024-06-08 05:30 4.00 1830 27500 (1985) 531 (1977) 3400 671 824 1060 1170 1820 3960 4250 7010 13400
2024-06-08 05:00 4.01 1840 27500 (1985) 531 (1977) 3400 671 824 1060 1170 1820 3960 4250 7010 13400
2024-06-08 04:30 4.00 1830 27500 (1985) 531 (1977) 3400 671 824 1060 1170 1820 3960 4250 7010 13400
2024-06-08 04:00 4.00 1830 27500 (1985) 531 (1977) 3400 671 824 1060 1170 1820 3960 4250 7010 13400
2024-06-08 03:30 4.01 1840 27500 (1985) 531 (1977) 3400 671 824 1060 1170 1820 3960 4250 7010 13400
2024-06-08 03:00 4.01 1840 27500 (1985) 531 (1977) 3400 671 824 1060 1170 1820 3960 4250 7010 13400
2024-06-08 02:30 4.01 1840 27500 (1985) 531 (1977) 3400 671 824 1060 1170 1820 3960 4250 7010 13400
2024-06-08 02:00 4.01 1840 27500 (1985) 531 (1977) 3400 671 824 1060 1170 1820 3960 4250 7010 13400
2024-06-08 01:30 4.02 1860 27500 (1985) 531 (1977) 3400 671 824 1060 1170 1820 3960 4250 7010 13400
2024-06-08 01:00 4.02 1860 27500 (1985) 531 (1977) 3400 671 824 1060 1170 1820 3960 4250 7010 13400
2024-06-08 00:30 4.02 1860 27500 (1985) 531 (1977) 3400 671 824 1060 1170 1820 3960 4250 7010 13400
2024-06-08 00:00 4.02 1860 27500 (1985) 531 (1977) 3400 671 824 1060 1170 1820 3960 4250 7010 13400
2024-06-07 23:30 4.02 1860 27500 (1985) 531 (1977) 3400 671 824 1060 1170 1820 3960 4250 7010 13400
2024-06-07 23:00 4.02 1860 27500 (1985) 531 (1977) 3400 671 824 1060 1170 1820 3960 4250 7010 13400

A total of 337 rows are displayed for years 1904 through 2023.